Time;durP1;ratioP1;P1;durP2;ratioP2;P2;SDS_P1;SDS_P2;PMS_P1;PMS_P2;Temp;Humidity;BMP_temperature;BMP_pressure;BME280_temperature;BME280_humidity;BME280_pressure;Samples;Min_cycle;Max_cycle;Signal;HPM_P1;HPM_P2
2021/12/27 00:00:29;;;;;;;4.65;2.40;;;-12.40;74.00;-13.70;97677.00;;;;4939507;28;87077;-54
2021/12/27 00:03:00;;;;;;;5.75;4.22;;;-12.40;73.90;-13.70;97685.00;;;;4938450;28;87647;-54
2021/12/27 00:05:28;;;;;;;6.35;4.22;;;-12.50;74.20;-13.70;97676.00;;;;4941273;28;86916;-54
2021/12/27 00:07:54;;;;;;;5.25;3.90;;;-12.50;74.40;-13.70;97682.00;;;;4940851;28;87586;-56
2021/12/27 00:10:23;;;;;;;5.60;3.90;;;-12.50;74.50;-13.80;97689.00;;;;4940717;28;87353;-54
2021/12/27 00:12:51;;;;;;;5.30;3.97;;;-12.60;74.60;-13.90;97687.00;;;;4938918;28;87021;-54
2021/12/27 00:15:17;;;;;;;4.78;2.80;;;-12.60;74.90;-13.90;97697.00;;;;4941120;28;87377;-54
2021/12/27 00:17:45;;;;;;;5.25;3.80;;;-12.60;74.90;-13.90;97690.00;;;;4940267;28;88464;-56
2021/12/27 00:20:15;;;;;;;4.90;2.42;;;-12.70;75.00;-13.90;97699.00;;;;4940183;28;88151;-55
2021/12/27 00:22:45;;;;;;;4.70;2.45;;;-12.70;75.00;-14.00;97688.00;;;;4940243;28;86963;-53
2021/12/27 00:25:13;;;;;;;5.15;3.63;;;-12.70;75.20;-14.00;97696.00;;;;4939616;28;87065;-55
2021/12/27 00:27:39;;;;;;;7.88;2.65;;;-12.70;75.50;-14.00;97695.00;;;;4939160;28;87602;-55
2021/12/27 00:30:08;;;;;;;5.55;3.83;;;-12.80;75.40;-14.00;97689.00;;;;4940685;28;87288;-51
2021/12/27 00:32:37;;;;;;;5.25;3.78;;;-12.80;75.40;-14.10;97697.00;;;;4931557;28;87405;-54
2021/12/27 00:35:08;;;;;;;4.45;3.60;;;-12.80;75.40;-14.10;97703.00;;;;4940836;28;87241;-55
2021/12/27 00:37:34;;;;;;;;;;;-12.80;75.60;-14.10;97692.00;;;;4927994;28;88408;-51
2021/12/27 00:40:01;;;;;;;6.00;3.20;;;-12.80;76.10;-14.10;97706.00;;;;4933394;28;88367;-55
2021/12/27 00:42:29;;;;;;;4.80;2.22;;;-12.80;76.50;-14.20;97703.00;;;;4939344;28;87958;-55
2021/12/27 00:44:55;;;;;;;7.07;2.40;;;-12.90;76.50;-14.20;97716.00;;;;4925343;28;87394;-54
2021/12/27 00:47:21;;;;;;;4.45;2.13;;;-12.90;76.70;-14.20;97710.00;;;;4942704;28;88799;-52
2021/12/27 00:49:47;;;;;;;4.40;2.38;;;-12.90;77.00;-14.10;97723.00;;;;4943780;28;87369;-52
2021/12/27 00:52:14;;;;;;;4.10;2.33;;;-12.80;77.00;-14.00;97726.00;;;;4943713;28;87104;-55
2021/12/27 00:54:40;;;;;;;4.22;2.50;;;-12.70;76.90;-13.90;97729.00;;;;4943495;28;88054;-55
2021/12/27 00:57:06;;;;;;;5.72;2.92;;;-12.70;76.50;-13.80;97734.00;;;;4943413;28;87667;-53
2021/12/27 00:59:32;;;;;;;5.22;2.40;;;-12.60;76.30;-13.70;97726.00;;;;4934086;28;88504;-60
2021/12/27 01:01:59;;;;;;;5.35;3.67;;;-12.50;75.90;-13.70;97723.00;;;;4944234;28;87379;-54
2021/12/27 01:04:25;;;;;;;4.82;3.45;;;-12.50;75.60;-13.60;97725.00;;;;4934456;28;87274;-55
2021/12/27 01:06:51;;;;;;;5.32;3.90;;;-12.40;75.80;-13.60;97734.00;;;;4934689;28;89561;-54
2021/12/27 01:09:36;;;;;;;5.97;3.92;;;-12.40;75.80;-13.60;97727.00;;;;4943136;28;88304;-55
2021/12/27 01:14:54;;;;;;;6.80;3.65;;;-12.40;75.80;-13.60;97736.00;;;;4942882;28;87040;-63
2021/12/27 01:17:21;;;;;;;5.20;3.70;;;-12.40;75.80;-13.50;97740.00;;;;4936041;28;87589;-63
2021/12/27 01:19:47;;;;;;;4.75;3.65;;;-12.30;75.90;-13.50;97742.00;;;;4946339;28;87688;-62
2021/12/27 01:22:16;;;;;;;5.88;3.70;;;-12.30;75.90;-13.50;97747.00;;;;4942893;28;87005;-62
2021/12/27 01:24:43;;;;;;;5.35;3.80;;;-12.30;75.90;-13.50;97749.00;;;;4943335;28;86317;-63
2021/12/27 01:27:09;;;;;;;6.97;3.72;;;-12.30;75.90;-13.40;97740.00;;;;4942354;28;88720;-63
2021/12/27 01:29:35;;;;;;;4.00;2.40;;;-12.30;75.90;-13.40;97753.00;;;;4942352;28;87746;-63
2021/12/27 01:32:02;;;;;;;5.32;3.55;;;-12.30;75.90;-13.40;97744.00;;;;4941248;28;88610;-63
2021/12/27 01:34:30;;;;;;;4.90;3.38;;;-12.30;75.90;-13.40;97747.00;;;;4938990;28;87094;-61
2021/12/27 01:36:57;;;;;;;4.25;3.15;;;-12.30;75.90;-13.40;97758.00;;;;4942490;28;87772;-61
2021/12/27 01:39:24;;;;;;;6.15;3.90;;;-12.20;76.00;-13.30;97755.00;;;;4943025;28;87107;-61
2021/12/27 01:41:51;;;;;;;4.22;3.28;;;-12.30;76.70;-13.40;97756.00;;;;4938520;28;87123;-59
2021/12/27 01:44:17;;;;;;;4.88;3.53;;;-12.20;76.00;-13.30;97780.00;;;;4942853;28;87286;-58
2021/12/27 01:46:44;;;;;;;5.38;3.85;;;-12.20;76.00;-13.30;97767.00;;;;4942634;28;88073;-62
2021/12/27 01:49:10;;;;;;;6.70;4.10;;;-12.20;76.00;-13.30;97776.00;;;;4943047;28;88370;-62
2021/12/27 01:51:38;;;;;;;5.32;4.13;;;-12.20;76.00;-13.30;97771.00;;;;4933583;28;87375;-58
2021/12/27 01:54:05;;;;;;;4.65;3.38;;;-12.20;76.00;-13.30;97768.00;;;;4917487;28;87285;-52
2021/12/27 01:56:31;;;;;;;6.47;3.85;;;-12.20;76.00;-13.30;97775.00;;;;4942043;28;89640;-52
2021/12/27 01:58:58;;;;;;;4.78;3.95;;;-12.10;76.10;-13.20;97778.00;;;;4942297;28;89688;-62
2021/12/27 02:01:26;;;;;;;6.03;3.85;;;-12.10;76.10;-13.20;97775.00;;;;4942614;28;86974;-60
2021/12/27 02:03:54;;;;;;;6.63;4.35;;;-12.10;76.10;-13.20;97777.00;;;;4942764;28;87436;-60
2021/12/27 02:06:21;;;;;;;5.22;3.58;;;-12.10;76.00;-13.20;97780.00;;;;4942387;28;88756;-61
2021/12/27 02:08:47;;;;;;;6.50;3.70;;;-12.10;75.80;-13.20;97788.00;;;;4949505;28;87401;-60
2021/12/27 02:11:17;;;;;;;6.00;4.30;;;-12.10;75.60;-13.20;97794.00;;;;4936778;28;87759;-61
2021/12/27 02:13:45;;;;;;;5.72;4.32;;;-12.10;75.60;-13.20;97791.00;;;;4942420;28;86655;-60
2021/12/27 02:16:17;;;;;;;4.70;3.70;;;-12.00;75.80;-13.20;97784.00;;;;4941433;28;87520;-59
2021/12/27 02:18:44;;;;;;;6.95;4.03;;;-12.10;75.70;-13.30;97795.00;;;;4942435;28;87218;-60
2021/12/27 02:21:11;;;;;;;5.32;4.05;;;-12.10;75.90;-13.30;97788.00;;;;4932977;28;88131;-59
2021/12/27 02:23:40;;;;;;;5.05;3.92;;;-12.10;76.10;-13.30;97791.00;;;;4942217;28;87293;-58
2021/12/27 02:26:07;;;;;;;4.70;3.67;;;-12.20;76.80;-13.30;97791.00;;;;4941979;28;88734;-59
2021/12/27 02:28:34;;;;;;;4.68;3.78;;;-12.20;76.00;-13.30;97783.00;;;;4937957;28;88449;-51
2021/12/27 02:31:00;;;;;;;5.35;3.72;;;-12.20;76.00;-13.30;97803.00;;;;4940948;28;87462;-53
2021/12/27 02:33:26;;;;;;;6.55;4.72;;;-12.20;76.00;-13.30;97800.00;;;;4941769;28;87283;-50
2021/12/27 02:35:56;;;;;;;6.35;4.50;;;-12.20;76.00;-13.30;97806.00;;;;4941269;28;87651;-54
2021/12/27 02:38:32;;;;;;;6.05;4.53;;;-12.20;76.00;-13.30;97802.00;;;;4941368;28;88554;-52
2021/12/27 02:41:00;;;;;;;5.38;4.05;;;-12.20;76.00;-13.30;97806.00;;;;4951855;28;87511;-52
2021/12/27 02:43:30;;;;;;;5.97;4.32;;;-12.10;76.10;-13.30;97820.00;;;;4941562;28;87453;-53
2021/12/27 02:46:10;;;;;;;5.80;4.43;;;-12.10;76.10;-13.20;97812.00;;;;4941107;28;88847;-51
2021/12/27 02:48:40;;;;;;;5.53;4.50;;;-12.10;76.10;-13.20;97815.00;;;;4941094;28;88670;-53
2021/12/27 02:51:08;;;;;;;6.32;4.55;;;-12.10;76.10;-13.20;97826.00;;;;4941480;28;87504;-53
2021/12/27 02:53:34;;;;;;;6.25;4.90;;;-12.00;76.20;-13.10;97815.00;;;;4941156;28;87883;-55
2021/12/27 02:56:04;;;;;;;5.70;4.45;;;-12.00;76.20;-13.10;97821.00;;;;4941203;28;87881;-55
2021/12/27 02:58:30;;;;;;;6.63;4.10;;;-12.00;76.10;-13.10;97831.00;;;;4933138;28;88337;-49
2021/12/27 03:00:58;;;;;;;5.50;4.15;;;-12.00;76.20;-13.10;97842.00;;;;4948999;28;87401;-49
2021/12/27 03:03:25;;;;;;;7.60;4.65;;;-11.90;76.30;-13.00;97838.00;;;;4941674;28;86499;-50
2021/12/27 03:05:51;;;;;;;7.30;4.70;;;-11.90;76.30;-13.00;97848.00;;;;4941143;28;88635;-54
2021/12/27 03:08:19;;;;;;;6.75;4.97;;;-11.90;76.30;-13.00;97852.00;;;;4936227;28;87895;-53
2021/12/27 03:10:51;;;;;;;6.57;4.93;;;-11.90;76.30;-13.00;97841.00;;;;4940393;28;88291;-53
2021/12/27 03:13:26;;;;;;;6.75;5.25;;;-11.80;76.40;-12.90;97844.00;;;;4932808;28;87206;-55
2021/12/27 03:16:03;;;;;;;7.25;5.25;;;-11.80;76.40;-12.90;97846.00;;;;4941086;28;87150;-55
2021/12/27 03:18:32;;;;;;;7.00;5.05;;;-11.80;76.40;-12.90;97847.00;;;;4933523;28;87439;-63
2021/12/27 03:20:58;;;;;;;5.97;4.72;;;-11.70;76.50;-12.80;97862.00;;;;4941013;28;87281;-62
2021/12/27 03:23:24;;;;;;;5.70;4.50;;;-11.70;76.50;-12.80;97859.00;;;;4940930;28;87388;-60
2021/12/27 03:25:52;;;;;;;6.15;4.72;;;-11.70;76.50;-12.80;97861.00;;;;4940318;28;87575;-60
2021/12/27 03:28:19;;;;;;;6.70;5.15;;;-11.70;76.40;-12.80;97877.00;;;;4939913;28;87633;-61
2021/12/27 03:30:46;;;;;;;6.63;4.68;;;-11.70;76.50;-12.80;97867.00;;;;4941034;28;87368;-60
2021/12/27 03:33:14;;;;;;;6.28;4.78;;;-11.70;76.50;-12.80;97866.00;;;;4939957;28;87106;-59
2021/12/27 03:35:51;;;;;;;5.43;4.50;;;-11.70;76.50;-12.80;97883.00;;;;4939767;28;89487;-53
2021/12/27 03:38:17;;;;;;;6.60;4.68;;;-11.70;76.50;-12.80;97882.00;;;;4940176;28;89224;-53
2021/12/27 03:40:45;;;;;;;6.50;4.97;;;-11.70;76.50;-12.80;97883.00;;;;4940758;28;87376;-52
2021/12/27 03:43:12;;;;;;;6.97;5.20;;;-11.60;76.50;-12.70;97890.00;;;;4940250;28;88098;-52
2021/12/27 03:45:40;;;;;;;7.30;5.43;;;-11.60;76.60;-12.80;97891.00;;;;4940475;28;88727;-52
2021/12/27 03:48:10;;;;;;;6.43;4.80;;;-11.70;76.50;-12.70;97885.00;;;;4932790;28;87337;-52
2021/12/27 03:50:38;;;;;;;6.00;4.57;;;-11.70;76.50;-12.70;97897.00;;;;4941152;28;87468;-53
2021/12/27 03:53:06;;;;;;;7.10;5.25;;;-11.60;76.60;-12.70;97899.00;;;;4940390;28;86669;-53
2021/12/27 03:55:33;;;;;;;4.82;3.92;;;-11.60;76.60;-12.70;97890.00;;;;4940394;28;88549;-54
2021/12/27 03:58:48;;;;;;;8.07;5.40;;;-11.60;76.50;-12.70;97893.00;;;;4917347;28;88595;-58
2021/12/27 04:01:31;;;;;;;6.07;5.10;;;-11.60;76.60;-12.70;97892.00;;;;4923675;28;88106;-60
2021/12/27 04:03:32;;;;;;;7.20;4.80;;;-11.60;76.60;-12.70;97903.00;;;;4932588;28;87453;-59
2021/12/27 04:05:59;;;;;;;6.30;5.22;;;-11.60;76.60;-12.70;97911.00;;;;4940515;28;87717;-61
2021/12/27 04:08:26;;;;;;;6.55;5.00;;;-11.60;76.60;-12.70;97919.00;;;;4940255;28;87340;-60
2021/12/27 04:10:53;;;;;;;7.13;5.13;;;-11.60;76.60;-12.70;97910.00;;;;4940041;28;86921;-60
2021/12/27 04:13:21;;;;;;;6.93;5.13;;;-11.60;76.60;-12.70;97924.00;;;;4940128;28;86954;-60
2021/12/27 04:15:48;;;;;;;7.13;5.47;;;-11.60;76.60;-12.70;97909.00;;;;4946679;28;88360;-60
2021/12/27 04:18:16;;;;;;;6.57;5.05;;;-11.60;76.70;-12.70;97917.00;;;;4920459;28;88515;-61
2021/12/27 04:20:43;;;;;;;7.75;5.25;;;-11.60;76.60;-12.70;97931.00;;;;4940257;28;87281;-61
2021/12/27 04:23:09;;;;;;;6.63;5.20;;;-11.60;76.60;-12.70;97927.00;;;;4943285;28;87225;-61
2021/12/27 04:25:35;;;;;;;7.25;5.75;;;-11.60;76.60;-12.70;97917.00;;;;4942972;28;89476;-56
2021/12/27 04:28:02;;;;;;;7.05;5.00;;;-11.60;76.60;-12.80;97912.00;;;;4942826;28;88411;-52
2021/12/27 04:30:29;;;;;;;7.13;5.50;;;-11.70;76.50;-12.70;97927.00;;;;4935473;28;88169;-55
2021/12/27 04:32:55;;;;;;;7.93;5.97;;;-11.60;76.50;-12.70;97938.00;;;;4942589;28;88072;-52
2021/12/27 04:35:21;;;;;;;7.35;5.72;;;-11.60;76.50;-12.70;97935.00;;;;4942805;28;87638;-55
2021/12/27 04:37:49;;;;;;;7.15;5.57;;;-11.60;76.50;-12.80;97947.00;;;;4943231;28;87321;-50
2021/12/27 04:40:18;;;;;;;7.72;5.35;;;-11.70;76.50;-12.80;97931.00;;;;4942615;28;87964;-55
2021/12/27 04:42:59;;;;;;;8.15;5.70;;;-11.70;76.50;-12.80;97937.00;;;;4943382;28;86754;-55
2021/12/27 04:45:25;;;;;;;8.60;6.28;;;-11.70;76.50;-12.80;97947.00;;;;4942978;28;87630;-54
2021/12/27 04:47:51;;;;;;;7.40;5.57;;;-11.70;76.50;-12.80;97950.00;;;;4942946;28;87451;-52
2021/12/27 04:50:17;;;;;;;7.88;5.78;;;-11.70;76.50;-12.80;97950.00;;;;4942479;28;88272;-54
2021/12/27 04:52:45;;;;;;;7.43;5.60;;;-11.70;77.30;-12.80;97961.00;;;;4943363;28;87749;-55
2021/12/27 04:55:11;;;;;;;9.35;6.18;;;-11.70;76.50;-12.80;97971.00;;;;4942493;28;87748;-57
2021/12/27 04:57:37;;;;;;;7.10;5.60;;;-11.60;76.60;-12.80;97979.00;;;;4942768;28;88454;-55
2021/12/27 05:00:06;;;;;;;7.32;5.70;;;-11.70;76.50;-12.80;97965.00;;;;4917721;28;87472;-54
2021/12/27 05:02:33;;;;;;;8.90;6.10;;;-11.70;76.50;-12.80;97983.00;;;;4935603;28;87028;-57
2021/12/27 05:04:59;;;;;;;8.52;5.82;;;-11.70;76.50;-12.80;97984.00;;;;4942187;28;87650;-55
2021/12/27 05:07:25;;;;;;;9.40;6.15;;;-11.70;76.50;-12.80;97985.00;;;;4942655;28;88055;-56
2021/12/27 05:09:51;;;;;;;7.90;5.90;;;-11.70;76.50;-12.80;97984.00;;;;4941875;28;87459;-55
2021/12/27 05:12:17;;;;;;;7.35;6.25;;;-11.70;76.50;-12.80;97977.00;;;;4943047;28;87920;-56
2021/12/27 05:14:43;;;;;;;7.47;6.20;;;-11.70;76.50;-12.80;97986.00;;;;4941709;28;89648;-57
2021/12/27 05:17:09;;;;;;;9.32;6.85;;;-11.70;76.50;-12.80;97980.00;;;;4942102;28;89300;-56
2021/12/27 05:19:35;;;;;;;8.05;5.95;;;-11.70;76.50;-12.90;97982.00;;;;4943035;28;87136;-50
2021/12/27 05:22:02;;;;;;;7.32;5.80;;;-11.70;76.50;-12.90;97990.00;;;;4942664;28;87335;-54
2021/12/27 05:24:28;;;;;;;8.18;5.30;;;-11.80;76.40;-13.00;98005.00;;;;4942524;28;89895;-54
2021/12/27 05:26:55;;;;;;;7.22;6.45;;;-11.80;76.40;-13.00;98005.00;;;;4942227;28;87036;-51
2021/12/27 05:29:22;;;;;;;8.38;6.18;;;-11.80;76.60;-13.00;98001.00;;;;4942016;28;87374;-51
2021/12/27 05:31:49;;;;;;;7.63;6.15;;;-11.80;77.20;-13.00;98005.00;;;;4941352;28;86649;-56
2021/12/27 05:34:15;;;;;;;10.10;6.50;;;-11.80;77.30;-13.00;98006.00;;;;4941354;28;87674;-56
2021/12/27 05:36:43;;;;;;;7.97;6.15;;;-11.80;77.50;-13.00;98008.00;;;;4941726;28;87733;-54
2021/12/27 05:39:12;;;;;;;8.48;6.45;;;-11.80;77.50;-13.00;98012.00;;;;4942372;28;88385;-53
2021/12/27 05:41:38;;;;;;;7.03;5.82;;;-11.80;77.60;-13.00;98023.00;;;;4941961;28;87245;-62
2021/12/27 05:44:05;;;;;;;8.95;6.50;;;-11.80;77.10;-13.00;98026.00;;;;4942483;28;87421;-62
2021/12/27 05:46:31;;;;;;;8.57;6.30;;;-11.90;76.50;-13.00;98027.00;;;;4948873;28;87450;-62
2021/12/27 05:48:57;;;;;;;9.02;7.05;;;-11.90;77.20;-13.00;98045.00;;;;4933729;28;87646;-61
2021/12/27 05:51:24;;;;;;;9.43;6.38;;;-11.90;77.30;-13.00;98044.00;;;;4942409;28;87205;-62
2021/12/27 05:53:50;;;;;;;8.20;6.03;;;-11.90;77.10;-13.00;98046.00;;;;4941836;28;88697;-62
2021/12/27 05:56:16;;;;;;;7.03;5.82;;;-11.90;76.30;-13.00;98060.00;;;;4942345;28;87269;-62
2021/12/27 05:58:42;;;;;;;7.13;5.97;;;-11.90;76.30;-13.00;98057.00;;;;4940851;28;87631;-64
2021/12/27 06:01:09;;;;;;;7.88;6.38;;;-11.90;76.30;-13.00;98068.00;;;;4932406;28;87124;-58
2021/12/27 06:03:37;;;;;;;8.15;6.63;;;-11.90;76.30;-13.00;98069.00;;;;4916390;28;89418;-59
2021/12/27 06:06:04;;;;;;;7.72;5.68;;;-11.90;76.30;-13.00;98071.00;;;;4932809;28;91039;-55
2021/12/27 06:08:31;;;;;;;7.45;5.57;;;-11.90;76.30;-13.00;98062.00;;;;4951642;28;87702;-58
2021/12/27 06:10:57;;;;;;;14.38;6.85;;;-11.90;76.30;-13.00;98072.00;;;;4900540;28;87934;-56
2021/12/27 06:13:23;;;;;;;8.60;6.25;;;-11.90;76.30;-13.00;98069.00;;;;4941885;28;87735;-57
2021/12/27 06:15:50;;;;;;;9.38;7.05;;;-11.90;76.30;-12.90;98065.00;;;;4941753;28;87232;-63
2021/12/27 06:18:16;;;;;;;7.00;5.78;;;-11.80;76.40;-13.00;98073.00;;;;4942649;28;87252;-62
2021/12/27 06:20:43;;;;;;;7.47;6.13;;;-11.90;76.10;-13.00;98080.00;;;;4933383;28;86351;-65
2021/12/27 06:23:09;;;;;;;9.55;5.80;;;-11.90;76.30;-13.00;98087.00;;;;4911001;28;89898;-62
2021/12/27 06:25:35;;;;;;;7.78;5.65;;;-11.90;76.30;-13.00;98084.00;;;;4941705;28;87461;-63
2021/12/27 06:28:02;;;;;;;7.72;5.43;;;-11.90;76.30;-13.10;98079.00;;;;4941252;28;88054;-63
2021/12/27 06:30:29;;;;;;;7.30;5.85;;;-11.90;76.10;-13.00;98087.00;;;;4941534;28;86971;-61
2021/12/27 06:32:55;;;;;;;7.55;5.40;;;-11.90;75.80;-13.00;98091.00;;;;4940204;28;87583;-54
2021/12/27 06:35:21;;;;;;;7.45;6.03;;;-11.90;76.10;-13.00;98094.00;;;;4945010;28;87362;-53
2021/12/27 06:37:48;;;;;;;7.20;6.00;;;-11.90;75.70;-13.00;98094.00;;;;4941800;28;87434;-56
2021/12/27 06:40:17;;;;;;;7.93;5.88;;;-11.80;76.00;-13.00;98107.00;;;;4940010;28;87469;-58
2021/12/27 06:42:43;;;;;;;7.68;6.28;;;-11.90;75.70;-13.00;98101.00;;;;4929587;28;87736;-57
2021/12/27 06:45:11;;;;;;;7.60;5.95;;;-11.90;75.70;-13.10;98103.00;;;;4890900;28;89621;-54
2021/12/27 06:47:37;;;;;;;8.23;6.00;;;-11.90;75.80;-13.00;98116.00;;;;4939672;28;86993;-56
2021/12/27 06:50:07;;;;;;;7.35;6.05;;;-11.90;75.70;-13.00;98117.00;;;;4941806;28;87438;-54
2021/12/27 06:52:33;;;;;;;7.82;6.10;;;-11.90;75.60;-13.00;98120.00;;;;4930961;28;89296;-53
2021/12/27 06:55:00;;;;;;;8.68;6.93;;;-11.80;75.70;-12.90;98127.00;;;;4941274;28;88771;-55
2021/12/27 06:57:26;;;;;;;8.40;6.43;;;-11.80;75.60;-13.00;98113.00;;;;4941760;28;87004;-60
2021/12/27 06:59:52;;;;;;;9.25;6.72;;;-11.80;75.20;-13.00;98119.00;;;;4941714;28;87334;-62
2021/12/27 07:02:18;;;;;;;8.07;6.70;;;-11.80;75.30;-13.00;98119.00;;;;4931771;28;90682;-57
2021/12/27 07:04:44;;;;;;;8.10;6.18;;;-11.80;75.10;-13.00;98124.00;;;;4941717;28;87270;-56
2021/12/27 07:07:10;;;;;;;9.18;6.75;;;-11.90;74.70;-13.00;98130.00;;;;4941051;28;87020;-52
2021/12/27 07:09:36;;;;;;;10.23;7.20;;;-11.90;74.80;-12.90;98125.00;;;;4941104;28;86260;-55
2021/12/27 07:12:03;;;;;;;9.02;7.10;;;-11.80;74.80;-12.90;98120.00;;;;4940998;28;87719;-55
2021/12/27 07:14:29;;;;;;;8.55;6.32;;;-11.80;75.10;-13.00;98121.00;;;;4940937;28;87443;-57
2021/12/27 07:16:55;;;;;;;7.75;6.00;;;-11.80;74.70;-12.90;98127.00;;;;4941053;28;88257;-56
2021/12/27 07:19:21;;;;;;;8.85;6.78;;;-11.80;74.20;-12.90;98127.00;;;;4941062;28;87099;-59
2021/12/27 07:21:48;;;;;;;8.77;6.32;;;-11.80;74.70;-12.90;98143.00;;;;4940604;28;88447;-56
2021/12/27 07:24:14;;;;;;;7.95;6.15;;;-11.80;74.40;-12.90;98130.00;;;;4940640;28;87369;-53
2021/12/27 07:26:40;;;;;;;8.45;6.13;;;-11.80;74.30;-12.90;98134.00;;;;4940628;28;87649;-57
2021/12/27 07:29:06;;;;;;;8.05;6.70;;;-11.80;73.80;-12.90;98138.00;;;;4940315;28;87790;-53
2021/12/27 07:31:32;;;;;;;8.90;6.50;;;-11.80;73.70;-12.90;98151.00;;;;4940040;28;87874;-52
2021/12/27 07:34:00;;;;;;;10.07;6.75;;;-11.80;73.60;-12.80;98162.00;;;;4940993;28;87367;-54
2021/12/27 07:36:29;;;;;;;8.82;6.75;;;-11.70;74.00;-12.80;98147.00;;;;4940490;28;87496;-54
2021/12/27 07:38:55;;;;;;;7.90;6.50;;;-11.70;74.00;-12.80;98142.00;;;;4939525;28;87030;-54
2021/12/27 07:41:22;;;;;;;9.90;6.85;;;-11.70;73.90;-12.80;98141.00;;;;4939873;28;88614;-54
2021/12/27 07:43:49;;;;;;;7.93;5.85;;;-11.70;73.80;-12.70;98157.00;;;;4944409;28;89434;-55
2021/12/27 07:46:15;;;;;;;6.65;5.18;;;-11.70;73.60;-12.80;98156.00;;;;4931457;28;86912;-62
2021/12/27 07:48:41;;;;;;;8.07;6.20;;;-11.70;73.60;-12.80;98155.00;;;;4940425;28;87011;-64
2021/12/27 07:51:07;;;;;;;7.80;5.88;;;-11.70;73.60;-12.80;98172.00;;;;4940949;28;88756;-63
2021/12/27 07:53:34;;;;;;;9.20;5.90;;;-11.70;73.90;-12.80;98158.00;;;;4929140;28;87618;-62
2021/12/27 07:56:00;;;;;;;8.10;6.25;;;-11.70;73.50;-12.80;98170.00;;;;4918222;28;87576;-52
2021/12/27 07:58:26;;;;;;;8.40;6.65;;;-11.70;73.70;-12.80;98163.00;;;;4950059;28;86360;-52
2021/12/27 08:00:54;;;;;;;8.60;6.50;;;-11.70;73.80;-12.80;98168.00;;;;4944265;28;87525;-56
2021/12/27 08:03:21;;;;;;;7.80;6.10;;;-11.70;74.00;-12.80;98174.00;;;;4943031;28;88372;-50
2021/12/27 08:05:48;;;;;;;8.63;6.28;;;-11.70;74.00;-12.70;98177.00;;;;4943182;28;87840;-53
2021/12/27 08:08:15;;;;;;;8.07;5.65;;;-11.60;73.90;-12.70;98167.00;;;;4943095;28;87492;-56
2021/12/27 08:10:42;;;;;;;7.50;5.63;;;-11.60;73.50;-12.70;98202.00;;;;4943649;28;87736;-52
2021/12/27 08:13:08;;;;;;;7.22;5.35;;;-11.60;73.50;-12.60;98202.00;;;;4930509;28;87491;-54
2021/12/27 08:15:34;;;;;;;7.32;5.65;;;-11.50;73.50;-12.50;98210.00;;;;4937521;28;87289;-52
2021/12/27 08:18:01;;;;;;;7.18;5.43;;;-11.40;73.20;-12.40;98203.00;;;;4943963;28;87181;-53
2021/12/27 08:20:27;;;;;;;13.05;7.43;;;-11.40;72.80;-12.50;98184.00;;;;4944027;28;87622;-55
2021/12/27 08:22:53;;;;;;;12.07;6.85;;;-11.40;72.60;-12.50;98192.00;;;;4943370;28;87334;-51
2021/12/27 08:25:19;;;;;;;7.15;5.28;;;-11.40;73.00;-12.50;98193.00;;;;4938496;28;88014;-56
2021/12/27 08:27:46;;;;;;;6.40;4.90;;;-11.40;72.40;-12.50;98192.00;;;;4942119;28;87203;-54
2021/12/27 08:30:13;;;;;;;7.47;5.15;;;-11.40;72.30;-12.50;98205.00;;;;4942804;28;88259;-52
2021/12/27 08:32:45;;;;;;;8.18;5.07;;;-11.50;72.40;-12.60;98180.00;;;;4934101;28;88082;-55
2021/12/27 08:35:12;;;;;;;5.85;5.13;;;-11.50;72.60;-12.60;98183.00;;;;4943187;28;87320;-56
2021/12/27 08:37:39;;;;;;;7.20;5.68;;;-11.50;73.10;-12.70;98187.00;;;;4943194;28;87056;-55
2021/12/27 08:40:07;;;;;;;7.32;5.20;;;-11.50;73.10;-12.60;98197.00;;;;4942965;28;88167;-54
2021/12/27 08:42:33;;;;;;;7.05;5.32;;;-11.50;73.10;-12.60;98186.00;;;;4937213;28;87769;-50
2021/12/27 08:45:00;;;;;;;8.60;5.47;;;-11.50;73.20;-12.60;98194.00;;;;4943578;28;87130;-56
2021/12/27 08:47:27;;;;;;;7.35;5.65;;;-11.50;73.10;-12.50;98193.00;;;;4943799;28;86570;-53
2021/12/27 08:49:53;;;;;;;7.43;5.22;;;-11.50;73.10;-12.50;98183.00;;;;4943064;28;87005;-56
2021/12/27 08:52:19;;;;;;;7.22;5.13;;;-11.40;73.20;-12.50;98189.00;;;;4934366;28;88626;-54
2021/12/27 08:54:45;;;;;;;8.35;5.63;;;-11.50;73.10;-12.50;98194.00;;;;4948726;28;88391;-55
2021/12/27 08:57:11;;;;;;;7.93;6.13;;;-11.40;73.40;-12.50;98183.00;;;;4943058;28;87049;-61
2021/12/27 08:59:38;;;;;;;12.77;5.97;;;-11.30;73.60;-12.40;98189.00;;;;4942335;28;87164;-61
2021/12/27 09:02:05;;;;;;;9.55;5.15;;;-11.30;73.50;-12.40;98185.00;;;;4943014;28;88085;-51
2021/12/27 09:04:32;;;;;;;9.45;5.35;;;-11.30;73.40;-12.40;98184.00;;;;4942279;28;87015;-54
2021/12/27 09:06:59;;;;;;;5.80;5.03;;;-11.30;73.30;-12.40;98197.00;;;;4942166;28;87345;-55
2021/12/27 09:09:25;;;;;;;7.55;5.78;;;-11.30;73.00;-12.40;98187.00;;;;4941968;28;88648;-53
2021/12/27 09:11:52;;;;;;;7.63;5.43;;;-11.30;73.30;-12.30;98201.00;;;;4950210;28;87252;-53
2021/12/27 09:14:18;;;;;;;7.90;5.95;;;-11.20;73.40;-12.30;98192.00;;;;4942836;28;87561;-56
2021/12/27 09:16:45;;;;;;;9.63;5.82;;;-11.20;73.40;-12.30;98197.00;;;;4942829;28;87403;-55
2021/12/27 09:19:12;;;;;;;8.95;6.43;;;-11.20;73.40;-12.30;98192.00;;;;4941850;28;88492;-54
2021/12/27 09:21:39;;;;;;;9.30;6.07;;;-11.20;73.40;-12.20;98199.00;;;;4942568;28;88208;-60
2021/12/27 09:24:05;;;;;;;7.18;5.63;;;-11.20;73.20;-12.20;98193.00;;;;4929294;28;87458;-62
2021/12/27 09:26:31;;;;;;;8.15;6.32;;;-11.10;73.20;-12.20;98195.00;;;;4942958;28;87395;-61
2021/12/27 09:28:58;;;;;;;9.15;6.13;;;-11.10;73.40;-12.10;98189.00;;;;4942001;28;87670;-56
2021/12/27 09:31:25;;;;;;;7.75;5.65;;;-11.10;73.40;-12.10;98195.00;;;;4942116;28;87382;-54
2021/12/27 09:33:51;;;;;;;8.48;5.53;;;-11.10;73.20;-12.10;98203.00;;;;4947917;28;87020;-55
2021/12/27 09:36:17;;;;;;;10.35;6.20;;;-11.00;73.20;-12.00;98195.00;;;;4942213;28;86592;-53
2021/12/27 09:38:45;;;;;;;7.53;6.07;;;-10.90;73.30;-12.00;98200.00;;;;4941728;28;88599;-61
2021/12/27 09:41:14;;;;;;;9.45;5.53;;;-10.90;73.20;-11.90;98193.00;;;;4907405;28;87392;-62
2021/12/27 09:43:40;;;;;;;8.10;5.80;;;-10.80;73.10;-11.90;98194.00;;;;4938211;28;88425;-62
2021/12/27 09:46:06;;;;;;;6.82;5.25;;;-10.80;73.10;-11.90;98208.00;;;;4942513;28;87360;-61
2021/12/27 09:48:34;;;;;;;6.72;5.13;;;-10.80;72.80;-11.90;98207.00;;;;4941867;28;88640;-61
2021/12/27 09:51:02;;;;;;;8.23;5.85;;;-10.80;73.00;-11.80;98207.00;;;;4941756;28;87944;-61
2021/12/27 09:53:29;;;;;;;6.00;4.88;;;-10.80;73.00;-11.80;98202.00;;;;4942448;28;87089;-62
2021/12/27 09:55:55;;;;;;;9.93;5.75;;;-10.70;72.80;-11.80;98214.00;;;;4942322;28;87454;-61
2021/12/27 09:58:21;;;;;;;7.88;5.18;;;-10.70;72.80;-11.80;98215.00;;;;4942276;28;87578;-62
2021/12/27 10:00:49;;;;;;;8.38;5.13;;;-10.70;73.00;-11.70;98223.00;;;;4941445;28;116786;-62
2021/12/27 10:03:16;;;;;;;7.55;4.93;;;-10.70;72.90;-11.60;98227.00;;;;4941425;28;111065;-61
2021/12/27 10:05:44;;;;;;;8.73;5.28;;;-10.60;73.90;-11.60;98211.00;;;;4940879;28;111684;-63
2021/12/27 10:08:12;;;;;;;6.78;4.95;;;-10.60;73.10;-11.60;98213.00;;;;4940214;28;118824;-62
2021/12/27 10:10:38;;;;;;;7.72;5.60;;;-10.50;72.90;-11.60;98219.00;;;;4932172;28;89571;-62
2021/12/27 10:13:10;;;;;;;8.48;6.00;;;-10.50;72.70;-11.60;98220.00;;;;4941562;28;86996;-61
2021/12/27 10:15:40;;;;;;;7.43;5.70;;;-10.50;73.00;-11.50;98230.00;;;;4941563;28;87069;-62
2021/12/27 10:18:13;;;;;;;9.27;5.50;;;-10.50;72.80;-11.50;98229.00;;;;4941342;28;87502;-62
2021/12/27 10:20:40;;;;;;;8.88;6.07;;;-10.40;72.90;-11.50;98221.00;;;;4941718;28;87456;-61
2021/12/27 10:23:07;;;;;;;7.75;5.90;;;-10.50;72.90;-11.50;98217.00;;;;4941478;28;87607;-61
2021/12/27 10:25:36;;;;;;;8.50;6.22;;;-10.40;73.00;-11.40;98228.00;;;;4941579;28;86554;-62
2021/12/27 10:28:03;;;;;;;9.48;5.97;;;-10.30;73.00;-11.40;98228.00;;;;4940951;28;88609;-62
2021/12/27 10:30:43;;;;;;;7.18;5.35;;;-10.30;72.70;-11.30;98233.00;;;;4941596;28;88488;-62
2021/12/27 10:33:14;;;;;;;6.82;5.30;;;-10.20;72.70;-11.20;98234.00;;;;4919012;28;88013;-62
2021/12/27 10:35:47;;;;;;;8.55;5.75;;;-10.20;72.70;-11.20;98240.00;;;;4941263;28;86997;-61
2021/12/27 10:38:31;;;;;;;7.57;5.97;;;-10.20;72.70;-11.20;98231.00;;;;4940787;28;87850;-61
2021/12/27 10:41:09;;;;;;;7.80;5.63;;;-10.20;72.70;-11.20;98244.00;;;;4941746;28;87338;-61
2021/12/27 10:43:46;;;;;;;8.07;6.30;;;-10.10;72.80;-11.10;98252.00;;;;4934790;28;87051;-62